createdAt,value
2018-12-19T00:01:55.504Z,5.81
2018-12-19T00:04:22.895Z,5.82
2018-12-19T00:06:50.294Z,5.87
2018-12-19T00:09:17.698Z,5.85
2018-12-19T00:11:45.081Z,5.89
2018-12-19T00:14:12.587Z,5.84
2018-12-19T00:16:39.971Z,5.93
2018-12-19T00:19:07.367Z,5.89
2018-12-19T00:21:34.774Z,5.93
2018-12-19T00:24:02.183Z,5.96
2018-12-19T00:26:29.579Z,5.94
2018-12-19T00:28:56.955Z,5.92
2018-12-19T00:31:24.372Z,5.94
2018-12-19T00:33:51.865Z,5.94
2018-12-19T00:36:19.235Z,5.96
2018-12-19T00:38:46.637Z,5.97
2018-12-19T00:41:14.018Z,6.02
2018-12-19T00:43:41.413Z,5.97
2018-12-19T00:46:08.802Z,6.00
2018-12-19T00:48:36.196Z,6.00
2018-12-19T00:51:03.644Z,5.98
2018-12-19T00:53:31.049Z,5.96
2018-12-19T00:55:58.441Z,5.98
2018-12-19T00:58:25.847Z,5.94
2018-12-19T01:00:53.249Z,5.95
2018-12-19T01:03:20.638Z,5.95
2018-12-19T01:05:48.052Z,5.91
2018-12-19T01:08:15.436Z,6.01
2018-12-19T01:10:42.889Z,5.95
2018-12-19T01:13:10.276Z,5.94
2018-12-19T01:15:37.676Z,5.98
2018-12-19T01:18:05.059Z,5.96
2018-12-19T01:20:32.448Z,5.98
2018-12-19T01:22:59.839Z,6.02
2018-12-19T01:25:27.229Z,6.03
2018-12-19T01:27:54.610Z,6.05
2018-12-19T01:30:22.042Z,6.01
2018-12-19T01:32:49.424Z,5.96
2018-12-19T01:35:16.851Z,5.96
2018-12-19T01:37:44.208Z,5.99
2018-12-19T01:40:11.587Z,6.06
2018-12-19T01:42:38.994Z,6.03
2018-12-19T02:02:08.623Z,6.00
2018-12-19T02:04:36.021Z,6.05
2018-12-19T02:07:03.453Z,6.03
2018-12-19T02:09:30.840Z,6.08
2018-12-19T02:11:58.317Z,6.15
2018-12-19T02:14:26.412Z,6.05
2018-12-19T02:16:53.802Z,6.06
2018-12-19T02:19:21.245Z,6.10
2018-12-19T02:21:48.687Z,6.07
2018-12-19T02:24:16.073Z,6.09
2018-12-19T02:26:43.467Z,6.07
2018-12-19T02:29:10.853Z,6.10
2018-12-19T02:31:38.359Z,6.15
2018-12-19T02:34:06.006Z,6.13
2018-12-19T02:36:33.405Z,6.15
2018-12-19T02:39:00.797Z,6.26
2018-12-19T02:41:28.184Z,6.25
2018-12-19T02:43:55.581Z,6.27
2018-12-19T02:46:22.984Z,6.17
2018-12-19T02:48:50.389Z,6.19
2018-12-19T02:51:17.780Z,6.37
2018-12-19T02:53:45.203Z,6.26
2018-12-19T02:56:12.593Z,6.22
2018-12-19T02:58:39.998Z,6.20
2018-12-19T03:01:07.600Z,6.25
2018-12-19T03:03:35.098Z,6.24
2018-12-19T03:06:02.471Z,6.19
2018-12-19T03:08:29.943Z,6.20
2018-12-19T03:10:57.345Z,6.29
2018-12-19T03:13:24.896Z,6.22
2018-12-19T03:15:52.291Z,6.28
2018-12-19T03:18:19.749Z,6.30
2018-12-19T03:20:47.130Z,6.29
2018-12-19T03:23:14.611Z,6.32
2018-12-19T03:25:42.001Z,6.58
2018-12-19T03:28:09.388Z,6.49
2018-12-19T03:30:36.782Z,6.49
2018-12-19T03:33:04.260Z,6.39
2018-12-19T03:35:31.735Z,6.40
2018-12-19T03:37:59.131Z,6.35
2018-12-19T03:40:26.514Z,6.37
2018-12-19T03:42:53.938Z,6.35
2018-12-19T03:45:21.450Z,6.29
2018-12-19T03:47:48.847Z,6.20
2018-12-19T03:50:16.276Z,6.26
2018-12-19T03:52:43.696Z,6.32
2018-12-19T03:55:11.083Z,6.30
2018-12-19T03:57:38.520Z,6.30
2018-12-19T04:00:06.792Z,6.29
2018-12-19T04:02:34.256Z,6.27
2018-12-19T04:05:01.669Z,6.34
2018-12-19T04:07:29.140Z,6.42
2018-12-19T04:09:58.041Z,6.38
2018-12-19T04:12:25.805Z,6.46
2018-12-19T04:14:53.204Z,6.47
2018-12-19T04:17:20.636Z,6.61
2018-12-19T04:19:48.044Z,6.49
2018-12-19T04:22:15.475Z,6.50
2018-12-19T04:24:42.943Z,6.54
2018-12-19T04:27:10.445Z,6.56
2018-12-19T04:29:38.122Z,6.69
2018-12-19T04:32:05.503Z,6.64
2018-12-19T04:34:32.916Z,6.62
2018-12-19T04:37:00.314Z,6.62
2018-12-19T04:39:27.749Z,6.61
2018-12-19T04:41:55.215Z,6.67
2018-12-19T04:44:22.612Z,6.71
2018-12-19T04:46:50.003Z,6.74
2018-12-19T04:49:17.386Z,6.85
2018-12-19T04:51:44.775Z,6.95
2018-12-19T04:54:12.168Z,7.02
2018-12-19T04:56:39.557Z,6.97
2018-12-19T04:59:06.939Z,6.96
2018-12-19T05:01:34.342Z,6.93
2018-12-19T05:04:01.851Z,7.01
2018-12-19T05:06:29.261Z,6.83
2018-12-19T05:08:56.733Z,6.97
2018-12-19T05:11:37.119Z,6.98
2018-12-19T05:14:04.516Z,6.87
2018-12-19T05:16:31.912Z,6.89
2018-12-19T05:18:59.295Z,6.99
2018-12-19T05:21:26.680Z,6.98
2018-12-19T05:23:54.060Z,6.97
2018-12-19T05:26:21.439Z,7.13
2018-12-19T05:28:51.840Z,7.19
2018-12-19T05:31:19.216Z,7.28
2018-12-19T05:33:46.609Z,7.35
2018-12-19T05:36:13.995Z,7.27
2018-12-19T05:38:41.389Z,7.25
2018-12-19T05:41:08.768Z,7.21
2018-12-19T05:43:36.154Z,7.31
2018-12-19T05:46:03.527Z,7.42
2018-12-19T05:48:30.913Z,7.46
2018-12-19T05:50:58.294Z,7.54
2018-12-19T05:53:25.681Z,7.47
2018-12-19T05:55:53.139Z,7.47
2018-12-19T05:58:20.533Z,7.30
2018-12-19T06:00:47.919Z,7.26
2018-12-19T06:03:15.307Z,7.28
2018-12-19T06:05:42.693Z,7.33
2018-12-19T06:08:10.064Z,7.32
2018-12-19T06:10:37.452Z,7.30
2018-12-19T06:13:04.835Z,7.31
2018-12-19T06:15:32.216Z,7.33
2018-12-19T06:17:59.627Z,7.31
2018-12-19T06:20:27.064Z,7.35
2018-12-19T06:22:54.529Z,7.45
2018-12-19T06:25:21.945Z,7.39
2018-12-19T06:27:49.382Z,7.49
2018-12-19T06:30:17.428Z,7.50
2018-12-19T06:32:44.859Z,7.55
2018-12-19T06:35:12.235Z,7.62
2018-12-19T06:37:39.616Z,7.60
2018-12-19T06:40:08.233Z,7.62
2018-12-19T06:42:35.670Z,7.47
2018-12-19T06:45:03.242Z,7.57
2018-12-19T06:47:30.612Z,7.64
2018-12-19T06:49:58.005Z,7.83
2018-12-19T06:52:25.380Z,7.80
2018-12-19T06:54:52.768Z,7.79
2018-12-19T06:57:20.139Z,7.90
2018-12-19T06:59:47.529Z,7.81
2018-12-19T07:02:14.911Z,7.84
2018-12-19T07:04:42.306Z,7.81
2018-12-19T07:07:09.692Z,7.83
2018-12-19T07:09:37.080Z,7.68
2018-12-19T07:12:04.457Z,7.67
2018-12-19T07:14:31.840Z,7.70
2018-12-19T07:16:59.221Z,7.70
2018-12-19T07:19:26.624Z,7.81
2018-12-19T07:24:53.025Z,7.76
2018-12-19T07:27:20.391Z,7.65
2018-12-19T07:29:47.768Z,7.69
2018-12-19T07:32:15.160Z,7.87
2018-12-19T07:34:44.387Z,7.81
2018-12-19T07:37:12.870Z,7.80
2018-12-19T07:39:40.249Z,7.82
2018-12-19T07:42:07.628Z,7.76
2018-12-19T07:44:35.008Z,7.85
2018-12-19T07:47:02.448Z,7.82
2018-12-19T07:49:29.820Z,7.82
2018-12-19T07:51:57.220Z,7.93
2018-12-19T07:54:24.658Z,7.96
2018-12-19T07:56:52.049Z,8.06
2018-12-19T07:59:19.424Z,8.04
2018-12-19T08:01:46.808Z,8.09
2018-12-19T08:04:14.436Z,8.16
2018-12-19T08:06:41.924Z,8.13
2018-12-19T08:09:09.299Z,8.10
2018-12-19T08:11:36.687Z,8.15
2018-12-19T08:14:04.177Z,8.12
2018-12-19T08:16:31.573Z,8.17
2018-12-19T08:18:58.996Z,8.14
2018-12-19T08:21:26.425Z,8.25
2018-12-19T08:23:53.845Z,8.34
2018-12-19T08:26:21.232Z,8.21
2018-12-19T08:28:48.849Z,8.07
2018-12-19T08:31:16.323Z,8.23
2018-12-19T08:33:43.751Z,8.36
2018-12-19T08:36:11.130Z,8.39
2018-12-19T08:38:38.513Z,8.30
2018-12-19T08:41:05.893Z,8.29
2018-12-19T08:43:33.277Z,8.42
2018-12-19T08:46:00.789Z,8.52
2018-12-19T08:48:28.262Z,8.40
2018-12-19T08:50:55.685Z,8.35
2018-12-19T08:53:23.076Z,8.32
2018-12-19T08:55:50.476Z,8.38
2018-12-19T08:58:17.861Z,8.50
2018-12-19T09:00:45.227Z,8.43
2018-12-19T09:03:12.612Z,8.52
2018-12-19T09:05:41.539Z,8.46
2018-12-19T09:08:09.044Z,8.48
2018-12-19T09:10:36.426Z,8.60
2018-12-19T09:13:03.813Z,8.76
2018-12-19T09:15:36.805Z,8.87
2018-12-19T09:18:04.189Z,8.80
2018-12-19T09:20:31.624Z,9.00
2018-12-19T09:22:59.003Z,9.09
2018-12-19T09:25:26.377Z,9.17
2018-12-19T09:27:53.784Z,9.04
2018-12-19T09:30:21.255Z,8.89
2018-12-19T09:32:48.635Z,8.85
2018-12-19T09:35:16.011Z,8.84
2018-12-19T09:37:43.414Z,8.91
2018-12-19T09:40:10.885Z,8.99
2018-12-19T09:42:39.144Z,8.93
2018-12-19T09:45:06.581Z,8.82
2018-12-19T09:47:34.032Z,8.87
2018-12-19T09:50:01.431Z,8.96
2018-12-19T09:52:28.806Z,8.97
2018-12-19T09:54:56.193Z,9.03
2018-12-19T09:57:23.737Z,9.13
2018-12-19T09:59:51.128Z,9.10
2018-12-19T10:02:19.012Z,9.26
2018-12-19T10:04:46.488Z,9.35
2018-12-19T10:07:13.869Z,9.20
2018-12-19T10:09:41.251Z,9.05
2018-12-19T10:12:08.673Z,9.18
2018-12-19T10:14:36.065Z,9.17
2018-12-19T10:17:03.484Z,9.13
2018-12-19T10:19:30.869Z,9.06
2018-12-19T10:21:58.332Z,8.97
2018-12-19T10:24:27.674Z,8.87
2018-12-19T10:26:55.053Z,8.79
2018-12-19T10:29:22.512Z,8.87
2018-12-19T10:31:49.929Z,8.84
2018-12-19T10:34:17.330Z,8.89
2018-12-19T10:36:44.712Z,8.90
2018-12-19T10:39:13.388Z,8.93
2018-12-19T10:41:40.771Z,9.07
2018-12-19T10:44:08.399Z,9.08
2018-12-19T10:46:35.782Z,9.08
2018-12-19T10:49:03.164Z,9.25
2018-12-19T10:51:30.553Z,9.27
2018-12-19T10:53:58.017Z,9.42
2018-12-19T10:56:25.407Z,9.64
2018-12-19T10:58:52.794Z,9.93
2018-12-19T11:01:20.187Z,9.99
2018-12-19T11:03:47.572Z,9.90
2018-12-19T11:06:15.011Z,9.70
2018-12-19T11:08:42.397Z,9.44
2018-12-19T11:11:09.944Z,9.51
2018-12-19T11:13:37.337Z,9.66
2018-12-19T11:16:04.743Z,9.87
2018-12-19T11:18:32.145Z,10.04
2018-12-19T11:20:59.603Z,10.10
2018-12-19T11:23:27.059Z,10.30
2018-12-19T11:25:54.453Z,10.40
2018-12-19T11:28:21.956Z,10.47
2018-12-19T11:30:49.356Z,10.43
2018-12-19T11:33:16.772Z,10.45
2018-12-19T11:35:44.163Z,10.60
2018-12-19T11:38:11.576Z,10.71
2018-12-19T11:40:38.976Z,10.72
2018-12-19T11:43:06.384Z,10.91
2018-12-19T11:45:33.784Z,11.01
2018-12-19T11:48:01.204Z,10.91
2018-12-19T11:50:28.647Z,11.06
2018-12-19T11:52:56.225Z,10.96
2018-12-19T11:55:23.623Z,10.96
2018-12-19T11:57:52.091Z,10.91
2018-12-19T12:00:19.522Z,10.91
2018-12-19T12:02:47.014Z,10.91
2018-12-19T12:05:14.429Z,10.80
2018-12-19T12:07:41.872Z,10.75
2018-12-19T12:10:09.403Z,10.75
2018-12-19T12:12:36.844Z,10.70
2018-12-19T12:15:05.661Z,10.79
2018-12-19T12:17:34.358Z,10.73
2018-12-19T12:20:01.763Z,10.71
2018-12-19T12:22:29.150Z,10.74
2018-12-19T12:24:56.574Z,10.81
2018-12-19T12:27:23.955Z,10.86
2018-12-19T12:29:51.361Z,10.85
2018-12-19T12:32:18.761Z,10.86
2018-12-19T12:34:46.176Z,11.04
2018-12-19T12:37:13.572Z,11.11
2018-12-19T12:39:40.979Z,11.20
2018-12-19T12:42:08.435Z,11.11
2018-12-19T12:44:36.218Z,11.05
2018-12-19T12:47:03.696Z,11.07
2018-12-19T12:49:31.097Z,11.12
2018-12-19T12:51:58.502Z,11.00
2018-12-19T12:54:25.901Z,10.98
2018-12-19T12:56:53.318Z,11.02
2018-12-19T12:59:20.710Z,11.05
2018-12-19T13:01:48.107Z,11.08
2018-12-19T13:04:15.528Z,11.17
2018-12-19T13:06:42.927Z,11.02
2018-12-19T13:09:10.424Z,10.96
2018-12-19T13:11:37.881Z,11.08
2018-12-19T13:14:05.376Z,11.12
2018-12-19T13:16:32.833Z,11.13
2018-12-19T13:19:00.237Z,11.06
2018-12-19T13:21:27.690Z,11.10
2018-12-19T13:23:55.099Z,11.18
2018-12-19T13:26:22.560Z,11.15
2018-12-19T13:28:49.972Z,11.22
2018-12-19T13:31:17.404Z,11.31
2018-12-19T13:33:44.803Z,11.48
2018-12-19T13:36:12.243Z,11.41
2018-12-19T13:38:39.639Z,11.54
2018-12-19T13:41:07.046Z,11.71
2018-12-19T13:43:34.440Z,11.76
2018-12-19T13:46:01.876Z,11.54
2018-12-19T13:48:29.294Z,11.43
2018-12-19T13:50:56.722Z,11.25
2018-12-19T13:53:24.147Z,11.25
2018-12-19T13:55:51.619Z,11.22
2018-12-19T13:58:19.016Z,11.20
2018-12-19T14:00:46.420Z,11.25
2018-12-19T14:03:13.857Z,11.27
2018-12-19T14:05:41.275Z,11.32
2018-12-19T14:08:08.781Z,11.28
2018-12-19T14:10:36.243Z,11.36
2018-12-19T14:13:03.776Z,11.22
2018-12-19T14:15:31.188Z,11.24
2018-12-19T14:17:58.587Z,11.23
2018-12-19T14:20:26.058Z,11.00
2018-12-19T14:22:53.474Z,10.91
2018-12-19T14:28:19.631Z,11.00
2018-12-19T14:30:47.184Z,10.85
2018-12-19T14:33:14.578Z,10.92
2018-12-19T14:35:42.000Z,10.86
2018-12-19T14:38:09.371Z,10.83
2018-12-19T14:40:36.752Z,10.88
2018-12-19T14:43:04.157Z,10.92
2018-12-19T14:45:31.540Z,10.84
2018-12-19T14:47:58.946Z,10.76
2018-12-19T14:50:26.337Z,10.73
2018-12-19T14:52:54.021Z,10.57
2018-12-19T14:55:21.416Z,10.58
2018-12-19T14:57:48.827Z,10.48
2018-12-19T15:00:16.222Z,10.50
2018-12-19T15:02:43.704Z,10.50
2018-12-19T15:05:11.100Z,10.47
2018-12-19T15:07:38.489Z,10.42
2018-12-19T15:10:07.490Z,10.32
2018-12-19T15:12:34.989Z,10.37
2018-12-19T15:15:02.491Z,10.26
2018-12-19T15:17:29.918Z,10.15
2018-12-19T15:19:57.556Z,10.10
2018-12-19T15:22:24.948Z,10.12
2018-12-19T15:27:51.195Z,10.00
2018-12-19T15:30:18.595Z,10.04
2018-12-19T15:32:46.153Z,10.02
2018-12-19T15:35:13.540Z,10.09
2018-12-19T15:37:40.948Z,10.03
2018-12-19T15:40:08.457Z,10.11
2018-12-19T15:42:35.850Z,10.11
2018-12-19T15:45:03.451Z,10.04
2018-12-19T15:47:30.852Z,10.06
2018-12-19T15:49:58.252Z,10.06
2018-12-19T15:52:25.640Z,10.01
2018-12-19T15:54:53.036Z,9.92
2018-12-19T15:57:20.418Z,9.95
2018-12-19T15:59:47.812Z,10.01
2018-12-19T16:02:15.195Z,9.96
2018-12-19T16:04:42.595Z,9.92
2018-12-19T16:07:10.017Z,9.91
2018-12-19T16:09:37.696Z,9.83
2018-12-19T16:12:05.088Z,9.83
2018-12-19T16:14:34.153Z,9.70
2018-12-19T16:17:01.546Z,9.68
2018-12-19T16:19:28.938Z,9.64
2018-12-19T16:21:56.323Z,9.68
2018-12-19T16:24:29.846Z,9.66
2018-12-19T16:26:57.307Z,9.67
2018-12-19T16:29:24.690Z,9.68
2018-12-19T16:31:52.095Z,9.69
2018-12-19T16:34:19.508Z,9.69
2018-12-19T16:36:46.896Z,9.80
2018-12-19T16:42:13.369Z,9.74
2018-12-19T16:44:40.779Z,9.65
2018-12-19T16:47:08.159Z,9.74
2018-12-19T16:49:35.549Z,9.72
2018-12-19T16:52:02.943Z,9.59
2018-12-19T16:54:30.328Z,9.85
2018-12-19T16:56:57.728Z,9.63
2018-12-19T16:59:28.506Z,9.75
2018-12-19T17:01:55.896Z,9.80
2018-12-19T17:04:26.412Z,9.75
2018-12-19T17:07:00.013Z,9.64
2018-12-19T17:09:27.397Z,9.73
2018-12-19T17:12:05.608Z,9.74
2018-12-19T17:14:32.990Z,9.64
2018-12-19T17:17:00.375Z,9.59
2018-12-19T17:19:27.785Z,9.61
2018-12-19T17:21:55.211Z,9.54
2018-12-19T17:24:24.557Z,9.49
2018-12-19T17:26:51.943Z,9.54
2018-12-19T17:29:19.319Z,9.56
2018-12-19T17:31:46.717Z,9.48
2018-12-19T17:34:14.112Z,9.60
2018-12-19T17:36:41.533Z,9.64
2018-12-19T17:39:09.028Z,9.54
2018-12-19T17:41:36.592Z,9.49
2018-12-19T17:44:04.018Z,9.39
2018-12-19T17:46:31.544Z,9.52
2018-12-19T17:48:58.947Z,9.48
2018-12-19T17:51:30.107Z,9.52
2018-12-19T17:53:57.505Z,9.40
2018-12-19T17:56:24.900Z,9.30
2018-12-19T17:58:52.304Z,9.36
2018-12-19T18:01:19.796Z,9.42
2018-12-19T18:03:47.179Z,9.38
2018-12-19T18:06:14.573Z,9.40
2018-12-19T18:08:41.965Z,9.45
2018-12-19T18:11:09.353Z,9.54
2018-12-19T18:13:36.751Z,9.46
2018-12-19T18:16:04.181Z,9.41
2018-12-19T18:18:31.570Z,9.39
2018-12-19T18:20:58.952Z,9.41
2018-12-19T18:23:26.353Z,9.34
2018-12-19T18:25:53.745Z,9.40
2018-12-19T18:28:21.128Z,9.34
2018-12-19T18:30:48.530Z,9.37
2018-12-19T18:33:15.919Z,9.32
2018-12-19T18:35:43.303Z,9.32
2018-12-19T18:38:10.735Z,9.40
2018-12-19T18:40:38.164Z,9.44
2018-12-19T18:43:05.532Z,9.28
2018-12-19T18:45:32.917Z,9.43
2018-12-19T18:48:00.372Z,9.30
2018-12-19T18:50:27.752Z,9.50
2018-12-19T18:52:55.852Z,9.42
2018-12-19T18:55:23.314Z,9.37
2018-12-19T18:57:50.748Z,9.28
2018-12-19T19:00:20.156Z,9.39
2018-12-19T19:02:47.594Z,9.37
2018-12-19T19:05:15.050Z,9.15
2018-12-19T19:07:42.436Z,9.26
2018-12-19T19:10:09.906Z,9.17
2018-12-19T19:12:37.287Z,9.21
2018-12-19T19:15:05.092Z,9.18
2018-12-19T19:17:32.472Z,9.11
2018-12-19T19:19:59.872Z,9.10
2018-12-19T19:22:27.257Z,9.24
2018-12-19T19:24:54.661Z,9.24
2018-12-19T19:27:22.054Z,9.01
2018-12-19T19:29:49.445Z,8.98
2018-12-19T19:32:16.841Z,9.05
2018-12-19T19:34:44.233Z,9.09
2018-12-19T19:37:13.600Z,8.91
2018-12-19T19:39:44.643Z,9.04
2018-12-19T19:42:12.023Z,9.04
2018-12-19T19:44:42.741Z,9.17
2018-12-19T19:47:10.122Z,9.27
2018-12-19T19:49:37.583Z,9.25
2018-12-19T19:52:05.025Z,9.38
2018-12-19T19:54:32.470Z,9.41
2018-12-19T19:56:59.927Z,9.22
2018-12-19T19:59:27.310Z,9.25
2018-12-19T20:01:54.753Z,9.13
2018-12-19T20:04:22.156Z,9.09
2018-12-19T20:06:49.652Z,9.04
2018-12-19T20:09:17.086Z,9.09
2018-12-19T20:11:44.566Z,9.00
2018-12-19T20:14:11.995Z,8.97
2018-12-19T20:16:44.811Z,8.99
2018-12-19T20:19:12.331Z,9.00
2018-12-19T20:21:39.723Z,8.93
2018-12-19T20:24:07.108Z,8.98
2018-12-19T20:26:34.503Z,9.15
2018-12-19T20:29:01.886Z,9.11
2018-12-19T20:31:29.275Z,9.07
2018-12-19T20:33:56.707Z,8.96
2018-12-19T20:36:24.108Z,9.06
2018-12-19T20:38:51.497Z,9.09
2018-12-19T20:41:18.887Z,9.04
2018-12-19T20:43:46.328Z,9.07
2018-12-19T20:46:13.769Z,9.10
2018-12-19T20:48:41.133Z,9.03
2018-12-19T20:51:08.508Z,9.03
2018-12-19T20:53:35.936Z,9.11
2018-12-19T20:56:03.906Z,9.21
2018-12-19T20:58:31.483Z,9.09
2018-12-19T21:00:58.933Z,9.04
2018-12-19T21:03:26.469Z,9.05
2018-12-19T21:05:53.969Z,9.01
2018-12-19T21:08:41.000Z,9.17
2018-12-19T21:11:11.571Z,9.16
2018-12-19T21:13:39.035Z,9.17
2018-12-19T21:16:06.430Z,9.10
2018-12-19T21:18:39.420Z,9.08
2018-12-19T21:21:06.804Z,9.10
2018-12-19T21:23:34.215Z,9.06
2018-12-19T21:26:01.639Z,8.99
2018-12-19T21:28:29.027Z,8.97
2018-12-19T21:30:56.420Z,8.97
2018-12-19T21:33:23.813Z,8.86
2018-12-19T21:35:51.191Z,8.85
2018-12-19T21:38:18.581Z,8.86
2018-12-19T21:40:45.968Z,8.91
2018-12-19T21:43:13.386Z,8.84
2018-12-19T21:45:40.842Z,8.82
2018-12-19T21:48:08.415Z,8.92
2018-12-19T21:50:35.980Z,8.98
2018-12-19T21:53:04.416Z,8.88
2018-12-19T21:55:31.921Z,8.87
2018-12-19T21:58:00.687Z,8.91
2018-12-19T22:00:41.584Z,8.83
2018-12-19T22:03:09.239Z,8.92
2018-12-19T22:05:36.672Z,9.01
2018-12-19T22:08:04.182Z,8.78
2018-12-19T22:10:31.634Z,8.81
2018-12-19T22:12:59.061Z,8.88
2018-12-19T22:15:26.562Z,8.94
2018-12-19T22:17:59.763Z,8.89
2018-12-19T22:20:27.446Z,8.75
2018-12-19T22:22:54.892Z,8.84
2018-12-19T22:25:22.404Z,8.95
2018-12-19T22:27:49.845Z,8.92
2018-12-19T22:30:17.258Z,9.01
2018-12-19T22:32:44.719Z,8.83
2018-12-19T22:35:12.137Z,8.60
2018-12-19T22:40:35.513Z,8.55
2018-12-19T22:43:02.925Z,8.60
2018-12-19T22:45:30.471Z,8.41
2018-12-19T22:47:57.876Z,8.52
2018-12-19T22:50:25.323Z,8.57
2018-12-19T22:52:52.713Z,8.32
2018-12-19T22:55:20.200Z,8.43
2018-12-19T22:57:47.688Z,8.53
2018-12-19T23:00:15.995Z,8.57
2018-12-19T23:02:49.222Z,8.68
2018-12-19T23:05:18.762Z,8.59
2018-12-19T23:07:46.299Z,8.51
2018-12-19T23:10:19.497Z,8.55
2018-12-19T23:12:46.943Z,8.65
2018-12-19T23:15:14.537Z,8.63
2018-12-19T23:17:41.991Z,8.71
2018-12-19T23:20:10.200Z,8.62
2018-12-19T23:22:37.617Z,8.51
2018-12-19T23:25:05.601Z,8.57
2018-12-19T23:27:33.180Z,8.53
2018-12-19T23:30:00.657Z,8.48
2018-12-19T23:32:28.045Z,8.24
2018-12-19T23:34:56.087Z,8.16
2018-12-19T23:37:23.663Z,8.24
2018-12-19T23:39:51.138Z,8.29
2018-12-19T23:42:18.770Z,8.21
2018-12-19T23:44:46.384Z,8.18
2018-12-19T23:47:13.824Z,8.25
2018-12-19T23:49:41.202Z,8.21
2018-12-19T23:52:29.377Z,8.25
2018-12-19T23:54:56.777Z,8.32
